createdAt,value
2023-05-05T00:03:44.141Z,100232.75
2023-05-05T00:08:00.437Z,100233.22
2023-05-05T00:12:16.764Z,100228.34
2023-05-05T00:16:33.321Z,100226.87
2023-05-05T00:20:49.779Z,100229.03
2023-05-05T00:25:07.388Z,100225.31
2023-05-05T00:29:23.831Z,100225.31
2023-05-05T00:33:40.062Z,100220.69
2023-05-05T00:37:56.440Z,100229.25
2023-05-05T00:42:12.678Z,100222.47
2023-05-05T00:46:30.808Z,100226.13
2023-05-05T00:50:47.197Z,100225.09
2023-05-05T00:55:04.553Z,100221.00
2023-05-05T00:59:21.184Z,100220.25
2023-05-05T01:03:39.465Z,100214.75
2023-05-05T01:08:23.433Z,100216.53
2023-05-05T01:13:02.634Z,100216.09
2023-05-05T01:17:21.968Z,100217.13
2023-05-05T01:22:03.580Z,100221.62
2023-05-05T01:26:48.783Z,100224.84
2023-05-05T01:31:13.935Z,100213.53
2023-05-05T01:35:33.399Z,100210.22
2023-05-05T01:39:54.247Z,100215.09
2023-05-05T01:44:13.763Z,100215.00
2023-05-05T01:48:31.344Z,100209.97
2023-05-05T01:52:47.904Z,100206.53
2023-05-05T01:57:05.875Z,100208.72
2023-05-05T02:01:27.211Z,100214.28
2023-05-05T02:05:44.126Z,100219.28
2023-05-05T02:10:02.681Z,100220.94
2023-05-05T02:14:20.708Z,100215.44
2023-05-05T02:18:37.758Z,100214.66
2023-05-05T02:22:54.415Z,100220.69
2023-05-05T02:27:11.477Z,100216.59
2023-05-05T02:31:28.689Z,100217.13
2023-05-05T02:35:47.197Z,100205.41
2023-05-05T02:40:08.859Z,100210.63
2023-05-05T02:44:27.263Z,100216.66
2023-05-05T02:48:46.695Z,100215.72
2023-05-05T02:53:03.201Z,100208.69
2023-05-05T02:57:21.334Z,100204.34
2023-05-05T03:02:13.081Z,100199.38
2023-05-05T03:06:29.974Z,100211.13
2023-05-05T03:11:05.284Z,100198.56
2023-05-05T03:15:26.727Z,100197.50
2023-05-05T03:19:44.620Z,100197.53
2023-05-05T03:24:01.385Z,100192.06
2023-05-05T03:28:18.200Z,100188.53
2023-05-05T03:32:34.534Z,100201.12
2023-05-05T03:36:51.021Z,100196.19
2023-05-05T03:41:07.253Z,100209.06
2023-05-05T03:45:23.477Z,100203.28
2023-05-05T03:49:39.648Z,100204.09
2023-05-05T03:53:55.904Z,100211.25
2023-05-05T03:58:12.211Z,100211.25
2023-05-05T04:02:28.627Z,100214.81
2023-05-05T04:06:44.906Z,100216.44
2023-05-05T04:11:02.823Z,100217.00
2023-05-05T04:15:19.097Z,100217.81
2023-05-05T04:19:35.352Z,100224.38
2023-05-05T04:23:51.535Z,100223.28
2023-05-05T04:28:07.917Z,100234.50
2023-05-05T04:32:24.288Z,100236.94
2023-05-05T04:36:40.694Z,100234.78
2023-05-05T04:40:56.932Z,100250.06
2023-05-05T04:45:13.534Z,100246.81
2023-05-05T04:49:33.129Z,100253.34
2023-05-05T04:53:49.374Z,100251.16
2023-05-05T04:58:05.747Z,100247.88
2023-05-05T05:02:22.149Z,100248.97
2023-05-05T05:06:38.449Z,100252.53
2023-05-05T05:10:54.763Z,100261.25
2023-05-05T05:15:13.192Z,100260.44
2023-05-05T05:19:30.025Z,100258.50
2023-05-05T05:23:46.352Z,100261.75
2023-05-05T05:28:10.301Z,100264.91
2023-05-05T05:32:27.373Z,100268.34
2023-05-05T05:36:43.548Z,100270.69
2023-05-05T05:40:59.919Z,100267.56
2023-05-05T05:45:16.324Z,100264.59
2023-05-05T05:49:33.640Z,100270.75
2023-05-05T05:53:49.958Z,100264.00
2023-05-05T05:58:10.080Z,100261.56
2023-05-05T06:02:27.509Z,100270.13
2023-05-05T06:06:43.867Z,100265.66
2023-05-05T06:11:00.843Z,100254.59
2023-05-05T06:15:17.377Z,100258.59
2023-05-05T06:19:34.727Z,100264.22
2023-05-05T06:23:51.204Z,100260.50
2023-05-05T06:28:07.463Z,100257.34
2023-05-05T06:32:23.790Z,100250.50
2023-05-05T06:36:40.057Z,100238.72
2023-05-05T06:40:58.692Z,100241.13
2023-05-05T06:45:15.178Z,100242.53
2023-05-05T06:49:31.507Z,100237.78
2023-05-05T06:53:47.838Z,100242.22
2023-05-05T06:58:04.125Z,100238.00
2023-05-05T07:02:20.304Z,100239.03
2023-05-05T07:06:36.509Z,100245.06
2023-05-05T07:10:52.719Z,100242.72
2023-05-05T07:15:23.365Z,100235.81
2023-05-05T07:19:44.399Z,100237.81
2023-05-05T07:24:01.377Z,100227.84
2023-05-05T07:28:18.019Z,100228.62
2023-05-05T07:32:34.642Z,100233.87
2023-05-05T07:36:51.069Z,100232.97
2023-05-05T07:41:07.364Z,100229.16
2023-05-05T07:45:23.644Z,100226.72
2023-05-05T07:49:39.864Z,100220.78
2023-05-05T07:53:56.670Z,100217.19
2023-05-05T07:58:13.048Z,100226.28
2023-05-05T08:02:29.465Z,100222.25
2023-05-05T08:06:45.888Z,100209.22
2023-05-05T08:11:02.521Z,100212.59
2023-05-05T08:15:18.841Z,100209.50
2023-05-05T08:19:35.155Z,100207.25
2023-05-05T08:23:51.330Z,100206.91
2023-05-05T08:28:07.515Z,100215.38
2023-05-05T08:32:23.824Z,100215.03
2023-05-05T08:36:40.053Z,100211.28
2023-05-05T08:40:56.455Z,100218.91
2023-05-05T08:45:13.206Z,100207.28
2023-05-05T08:49:40.569Z,100212.31
2023-05-05T08:54:01.021Z,100205.59
2023-05-05T08:58:20.493Z,100197.13
2023-05-05T09:02:37.363Z,100191.12
2023-05-05T09:06:53.739Z,100196.78
2023-05-05T09:11:09.925Z,100194.97
2023-05-05T09:15:28.485Z,100186.56
2023-05-05T09:20:04.947Z,100186.63
2023-05-05T09:24:21.340Z,100182.06
2023-05-05T09:28:37.780Z,100184.25
2023-05-05T09:32:55.784Z,100177.31
2023-05-05T09:37:12.000Z,100171.84
2023-05-05T09:41:38.730Z,100182.44
2023-05-05T09:46:10.000Z,100173.78
2023-05-05T09:50:26.332Z,100163.81
2023-05-05T09:54:43.895Z,100162.72
2023-05-05T09:59:09.722Z,100175.50
2023-05-05T10:03:26.718Z,100164.19
2023-05-05T10:07:47.801Z,100168.53
2023-05-05T10:12:05.152Z,100166.94
2023-05-05T10:16:21.966Z,100165.13
2023-05-05T10:20:38.977Z,100153.41
2023-05-05T10:25:12.860Z,100140.97
2023-05-05T10:29:47.576Z,100142.03
2023-05-05T10:34:04.980Z,100147.28
2023-05-05T10:38:24.708Z,100143.44
2023-05-05T10:42:42.575Z,100121.75
2023-05-05T10:46:59.517Z,100118.09
2023-05-05T10:51:39.887Z,100115.41
2023-05-05T10:56:11.953Z,100102.09
2023-05-05T11:00:40.462Z,100095.09
2023-05-05T11:05:22.853Z,100094.09
2023-05-05T11:09:54.723Z,100085.63
2023-05-05T11:14:22.642Z,100090.41
2023-05-05T11:18:40.902Z,100080.59
2023-05-05T11:23:03.835Z,100081.13
2023-05-05T11:27:19.974Z,100077.41
2023-05-05T11:31:36.159Z,100072.03
2023-05-05T11:36:05.022Z,100064.28
2023-05-05T11:40:30.092Z,100050.66
2023-05-05T11:44:46.526Z,100055.97
2023-05-05T11:49:02.752Z,100042.94
2023-05-05T11:53:20.469Z,100044.69
2023-05-05T11:57:36.765Z,100043.75
2023-05-05T12:01:53.332Z,100036.34
2023-05-05T12:06:09.629Z,100033.50
2023-05-05T12:10:26.027Z,100025.00
2023-05-05T12:14:53.337Z,100027.81
2023-05-05T12:19:11.990Z,100017.75
2023-05-05T12:23:30.272Z,100017.50
2023-05-05T12:27:56.074Z,100019.97
2023-05-05T12:32:24.031Z,100012.88
2023-05-05T12:36:40.342Z,100007.63
2023-05-05T12:40:56.741Z,100011.75
2023-05-05T12:45:20.216Z,100002.41
2023-05-05T12:49:52.205Z,100006.63
2023-05-05T12:54:10.932Z,99998.91
2023-05-05T12:58:28.159Z,99996.72
2023-05-05T13:02:44.530Z,99987.69
2023-05-05T13:07:10.906Z,99983.91
2023-05-05T13:11:27.499Z,99971.94
2023-05-05T13:15:43.820Z,99968.75
2023-05-05T13:20:00.121Z,99964.13
2023-05-05T13:28:36.231Z,99955.59
2023-05-05T13:32:52.495Z,99949.13
2023-05-05T13:37:08.944Z,99949.50
2023-05-05T13:41:25.159Z,99943.16
2023-05-05T13:45:41.998Z,99937.16
2023-05-05T13:49:58.336Z,99935.00
2023-05-05T13:54:14.572Z,99927.53
2023-05-05T13:58:30.802Z,99940.66
2023-05-05T14:02:48.273Z,99940.66
2023-05-05T14:07:05.082Z,99937.28
2023-05-05T14:11:21.649Z,99933.47
2023-05-05T14:15:37.986Z,99927.66
2023-05-05T14:19:54.295Z,99931.38
2023-05-05T14:24:10.577Z,99928.19
2023-05-05T14:28:26.958Z,99923.81
2023-05-05T14:32:43.265Z,99918.81
2023-05-05T14:36:59.589Z,99918.78
2023-05-05T14:41:15.854Z,99914.81
2023-05-05T14:45:32.920Z,99917.81
2023-05-05T14:49:49.193Z,99909.19
2023-05-05T14:54:11.720Z,99913.72
2023-05-05T14:58:33.706Z,99913.62
2023-05-05T15:02:50.007Z,99917.16
2023-05-05T15:07:06.401Z,99910.91
2023-05-05T15:11:22.624Z,99901.00
2023-05-05T15:15:39.008Z,99899.56
2023-05-05T15:19:56.215Z,99896.06
2023-05-05T15:24:12.589Z,99898.12
2023-05-05T15:28:28.746Z,99897.97
2023-05-05T15:32:45.095Z,99890.88
2023-05-05T15:37:01.426Z,99899.59
2023-05-05T15:41:17.640Z,99898.78
2023-05-05T15:45:34.773Z,99896.59
2023-05-05T15:49:52.591Z,99899.72
2023-05-05T15:54:08.860Z,99893.94
2023-05-05T15:58:25.129Z,99891.44
2023-05-05T16:02:41.458Z,99889.28
2023-05-05T16:06:58.398Z,99887.41
2023-05-05T16:11:14.712Z,99886.31
2023-05-05T16:15:32.045Z,99882.06
2023-05-05T16:19:48.387Z,99874.47
2023-05-05T16:24:04.775Z,99871.16
2023-05-05T16:28:21.212Z,99875.31
2023-05-05T16:32:37.519Z,99872.37
2023-05-05T16:36:54.076Z,99870.63
2023-05-05T16:41:11.453Z,99867.78
2023-05-05T16:45:27.808Z,99870.44
2023-05-05T16:49:44.243Z,99876.63
2023-05-05T16:54:00.523Z,99869.88
2023-05-05T16:58:16.845Z,99865.47
2023-05-05T17:02:33.453Z,99876.31
2023-05-05T17:06:49.814Z,99873.28
2023-05-05T17:11:06.074Z,99868.78
2023-05-05T17:15:22.506Z,99874.47
2023-05-05T17:19:38.789Z,99862.44
2023-05-05T17:23:55.176Z,99874.06
2023-05-05T17:28:11.652Z,99869.97
2023-05-05T17:32:46.808Z,99872.34
2023-05-05T17:37:03.215Z,99876.41
2023-05-05T17:41:19.913Z,99877.56
2023-05-05T17:45:36.468Z,99878.53
2023-05-05T17:49:54.292Z,99886.50
2023-05-05T17:54:10.608Z,99885.31
2023-05-05T17:58:26.934Z,99889.91
2023-05-05T18:02:43.492Z,99888.75
2023-05-05T18:07:00.212Z,99902.44
2023-05-05T18:11:16.606Z,99902.37
2023-05-05T18:15:33.077Z,99906.78
2023-05-05T18:19:55.364Z,99914.63
2023-05-05T18:24:20.147Z,99911.75
2023-05-05T18:28:37.811Z,99918.69
2023-05-05T18:32:54.155Z,99928.50
2023-05-05T18:37:10.832Z,99925.13
2023-05-05T18:41:27.279Z,99930.88
2023-05-05T18:45:43.772Z,99935.81
2023-05-05T18:50:00.182Z,99935.34
2023-05-05T18:54:16.429Z,99939.41
2023-05-05T18:58:32.904Z,99942.59
2023-05-05T19:02:49.233Z,99949.22
2023-05-05T19:07:05.827Z,99957.66
2023-05-05T19:11:23.772Z,99955.09
2023-05-05T19:15:43.564Z,99947.66
2023-05-05T19:20:00.720Z,99957.44
2023-05-05T19:24:21.102Z,99950.66
2023-05-05T19:28:37.388Z,99954.59
2023-05-05T19:32:53.796Z,99955.44
2023-05-05T19:37:10.607Z,99956.91
2023-05-05T19:41:27.049Z,99961.91
2023-05-05T19:45:43.426Z,99957.03
2023-05-05T19:49:59.862Z,99953.28
2023-05-05T19:54:16.660Z,99960.38
2023-05-05T19:58:54.616Z,99952.78
2023-05-05T20:03:11.271Z,99950.97
2023-05-05T20:07:27.626Z,99955.50
2023-05-05T20:11:43.846Z,99953.56
2023-05-05T20:16:00.600Z,99954.28
2023-05-05T20:20:20.218Z,99951.75
2023-05-05T20:24:36.764Z,99950.38
2023-05-05T20:28:53.157Z,99955.63
2023-05-05T20:33:09.403Z,99949.78
2023-05-05T20:37:27.293Z,99951.22
2023-05-05T20:41:43.720Z,99946.47
2023-05-05T20:46:01.353Z,99945.44
2023-05-05T20:50:20.862Z,99945.22
2023-05-05T20:54:37.215Z,99944.16
2023-05-05T20:58:53.428Z,99939.63
2023-05-05T21:03:09.820Z,99945.81
2023-05-05T21:07:26.152Z,99948.63
2023-05-05T21:11:42.739Z,99947.22
2023-05-05T21:15:59.060Z,99937.56
2023-05-05T21:20:16.312Z,99935.53
2023-05-05T21:24:32.572Z,99940.72
2023-05-05T21:28:48.812Z,99925.53
2023-05-05T21:33:05.176Z,99924.47
2023-05-05T21:37:21.361Z,99919.00
2023-05-05T21:41:37.771Z,99917.25
2023-05-05T21:46:01.336Z,99909.25
2023-05-05T21:50:17.576Z,99911.94
2023-05-05T21:54:33.787Z,99911.97
2023-05-05T21:58:50.061Z,99913.19
2023-05-05T22:03:06.320Z,99917.03
2023-05-05T22:07:22.651Z,99928.03
2023-05-05T22:11:38.861Z,99927.75
2023-05-05T22:15:55.212Z,99928.47
2023-05-05T22:20:11.783Z,99930.69
2023-05-05T22:24:28.125Z,99921.62
2023-05-05T22:28:44.302Z,99911.28
2023-05-05T22:33:00.656Z,99915.63
2023-05-05T22:37:17.354Z,99924.59
2023-05-05T22:41:33.536Z,99919.84
2023-05-05T22:45:50.121Z,99920.47
2023-05-05T22:50:08.006Z,99924.41
2023-05-05T22:54:24.371Z,99941.13
2023-05-05T22:58:40.898Z,99932.59
2023-05-05T23:02:57.167Z,99932.09
2023-05-05T23:07:13.784Z,99929.94
2023-05-05T23:11:29.973Z,99930.47
2023-05-05T23:15:46.352Z,99931.63
2023-05-05T23:20:02.908Z,99934.00
2023-05-05T23:24:19.323Z,99930.66
2023-05-05T23:28:35.551Z,99932.53
2023-05-05T23:32:52.020Z,99929.59
2023-05-05T23:37:08.293Z,99918.44
2023-05-05T23:41:24.762Z,99928.25
2023-05-05T23:45:41.180Z,99927.81
2023-05-05T23:49:57.391Z,99922.91
2023-05-05T23:54:13.650Z,99923.81
2023-05-05T23:58:30.049Z,99927.75
